Time;durP1;ratioP1;P1;durP2;ratioP2;P2;SDS_P1;SDS_P2;PMS_P1;PMS_P2;Temp;Humidity;BMP_temperature;BMP_pressure;BME280_temperature;BME280_humidity;BME280_pressure;Samples;Min_cycle;Max_cycle;Signal;HPM_P1;HPM_P2
2024/02/20 00:00:59;;;;;;;;;;;;;;;6.69;100.00;96504.72;10441804;28;1542;-66
2024/02/20 00:06:01;;;;;;;;;;;;;;;6.69;100.00;96509.25;10453169;28;1921;-65
2024/02/20 00:11:05;;;;;;;;;;;;;;;6.70;100.00;96505.53;10449531;28;1685;-65
2024/02/20 00:16:08;;;;;;;;;;;;;;;6.76;100.00;96499.25;10446108;28;1412;-64
2024/02/20 00:21:10;;;;;;;;;;;;;;;6.74;100.00;96496.00;10444300;28;1424;-65
2024/02/20 00:26:13;;;;;;;;;;;;;;;6.80;100.00;96481.69;10447404;28;1913;-66
2024/02/20 00:31:15;;;;;;;;;;;;;;;6.88;100.00;96481.38;10451668;28;1361;-67
2024/02/20 00:36:18;;;;;;;;;;;;;;;6.96;100.00;96477.53;10436216;28;2273;-65
2024/02/20 00:41:21;;;;;;;;;;;;;;;6.99;100.00;96480.53;10445840;28;991;-65
2024/02/20 00:46:23;;;;;;;;;;;;;;;6.96;100.00;96483.69;10448675;28;2009;-64
2024/02/20 00:51:26;;;;;;;;;;;;;;;7.02;100.00;96479.28;10446488;28;1767;-63
2024/02/20 00:56:29;;;;;;;;;;;;;;;6.95;100.00;96479.41;10446951;28;1151;-64
2024/02/20 01:01:31;;;;;;;;;;;;;;;6.82;100.00;96484.97;10452478;28;1301;-65
2024/02/20 01:06:36;;;;;;;;;;;;;;;6.47;100.00;96492.94;10418088;28;1930;-64
2024/02/20 01:11:39;;;;;;;;;;;;;;;6.04;100.00;96493.19;10444427;28;997;-65
2024/02/20 01:16:42;;;;;;;;;;;;;;;5.91;100.00;96491.50;10451671;28;1400;-64
2024/02/20 01:21:45;;;;;;;;;;;;;;;5.85;100.00;96487.88;10448151;28;1357;-64
2024/02/20 01:26:47;;;;;;;;;;;;;;;5.85;100.00;96487.03;10456521;28;1914;-64
2024/02/20 01:31:50;;;;;;;;;;;;;;;5.75;100.00;96479.59;10450611;28;2283;-64
2024/02/20 01:36:52;;;;;;;;;;;;;;;5.82;100.00;96482.97;10453552;28;1440;-64
2024/02/20 01:41:57;;;;;;;;;;;;;;;5.87;100.00;96474.31;10453593;28;1171;-65
2024/02/20 01:46:59;;;;;;;;;;;;;;;5.92;100.00;96464.63;10449479;28;1902;-75
2024/02/20 01:52:02;;;;;;;;;;;;;;;5.95;100.00;96461.47;10461161;28;1695;-68
2024/02/20 01:57:06;;;;;;;;;;;;;;;6.02;100.00;96460.56;10449007;28;1144;-72
2024/02/20 02:02:09;;;;;;;;;;;;;;;6.05;100.00;96454.81;10454373;28;1459;-75
2024/02/20 02:07:11;;;;;;;;;;;;;;;6.00;100.00;96460.00;10451108;28;1965;-73
2024/02/20 02:12:14;;;;;;;;;;;;;;;5.97;100.00;96456.72;10454203;28;1399;-64
2024/02/20 02:17:16;;;;;;;;;;;;;;;6.00;100.00;96458.13;10454819;28;1401;-65
2024/02/20 02:22:19;;;;;;;;;;;;;;;6.06;100.00;96461.75;10453001;28;1524;-65
2024/02/20 02:27:22;;;;;;;;;;;;;;;6.11;100.00;96454.69;10453200;28;2462;-64
2024/02/20 02:32:24;;;;;;;;;;;;;;;6.08;100.00;96465.00;10451063;28;1612;-65
2024/02/20 02:37:27;;;;;;;;;;;;;;;6.08;100.00;96454.31;10451722;28;1454;-69
2024/02/20 02:42:29;;;;;;;;;;;;;;;6.01;100.00;96453.63;10445703;28;1657;-68
2024/02/20 02:47:32;;;;;;;;;;;;;;;5.92;100.00;96456.63;10449785;28;1985;-64
2024/02/20 02:52:34;;;;;;;;;;;;;;;5.85;100.00;96465.69;10447288;28;1456;-65
2024/02/20 02:57:37;;;;;;;;;;;;;;;5.90;100.00;96455.97;10447701;28;1701;-65
2024/02/20 03:02:39;;;;;;;;;;;;;;;5.90;100.00;96463.97;10454156;28;1611;-64
2024/02/20 03:07:42;;;;;;;;;;;;;;;6.04;100.00;96474.50;10453471;28;1914;-63
2024/02/20 03:12:45;;;;;;;;;;;;;;;6.02;100.00;96466.72;10449065;28;2406;-65
2024/02/20 03:17:47;;;;;;;;;;;;;;;5.95;100.00;96466.81;10446244;28;1571;-64
2024/02/20 03:22:50;;;;;;;;;;;;;;;5.92;100.00;96459.28;10446301;28;1433;-69
2024/02/20 03:27:53;;;;;;;;;;;;;;;5.89;100.00;96462.34;10455458;28;2023;-65
2024/02/20 03:32:56;;;;;;;;;;;;;;;5.85;100.00;96477.22;10454423;28;1570;-63
2024/02/20 03:37:59;;;;;;;;;;;;;;;5.91;100.00;96483.50;10455020;28;1776;-63
2024/02/20 03:43:02;;;;;;;;;;;;;;;5.89;100.00;96489.03;10447848;28;974;-64
2024/02/20 03:48:05;;;;;;;;;;;;;;;5.85;100.00;96493.22;10444047;28;1993;-65
2024/02/20 03:53:08;;;;;;;;;;;;;;;5.81;100.00;96499.22;10447484;28;2559;-64
2024/02/20 03:58:10;;;;;;;;;;;;;;;5.82;100.00;96504.31;10453338;28;1059;-65
2024/02/20 04:03:12;;;;;;;;;;;;;;;5.75;100.00;96508.94;10455558;28;1575;-65
2024/02/20 04:08:15;;;;;;;;;;;;;;;5.77;100.00;96514.03;10439583;28;1981;-66
2024/02/20 04:13:18;;;;;;;;;;;;;;;5.72;100.00;96506.72;10449942;28;1246;-64
2024/02/20 04:18:20;;;;;;;;;;;;;;;5.77;100.00;96509.53;10447251;28;1389;-64
2024/02/20 04:23:24;;;;;;;;;;;;;;;5.81;100.00;96521.38;10445423;28;1381;-64
2024/02/20 04:28:28;;;;;;;;;;;;;;;5.80;100.00;96526.94;10448812;28;2387;-64
2024/02/20 04:33:31;;;;;;;;;;;;;;;5.75;100.00;96530.28;10428113;28;1635;-64
2024/02/20 04:38:34;;;;;;;;;;;;;;;5.68;100.00;96541.03;10448968;28;1345;-64
2024/02/20 04:43:38;;;;;;;;;;;;;;;5.63;100.00;96543.56;10446903;28;1103;-70
2024/02/20 04:48:41;;;;;;;;;;;;;;;5.59;100.00;96546.88;10446190;28;2324;-64
2024/02/20 04:53:43;;;;;;;;;;;;;;;5.57;100.00;96539.09;10454059;28;1389;-66
2024/02/20 04:58:46;;;;;;;;;;;;;;;5.67;100.00;96547.41;10449805;28;1384;-66
2024/02/20 05:03:49;;;;;;;;;;;;;;;5.66;100.00;96552.94;10455940;28;1654;-67
2024/02/20 05:08:51;;;;;;;;;;;;;;;5.72;100.00;96560.06;10457364;28;1959;-67
2024/02/20 05:13:54;;;;;;;;;;;;;;;5.67;100.00;96562.59;10457355;28;1048;-68
2024/02/20 05:18:57;;;;;;;;;;;;;;;5.57;100.00;96560.44;10456334;28;1662;-66
2024/02/20 05:23:59;;;;;;;;;;;;;;;5.65;100.00;96551.31;10452258;28;2179;-66
2024/02/20 05:29:01;;;;;;;;;;;;;;;5.65;100.00;96562.00;10454371;28;1981;-71
2024/02/20 05:34:04;;;;;;;;;;;;;;;5.59;100.00;96562.88;10449413;28;2380;-66
2024/02/20 05:39:07;;;;;;;;;;;;;;;5.50;100.00;96590.91;10450233;28;1330;-64
2024/02/20 05:44:10;;;;;;;;;;;;;;;5.43;100.00;96601.63;10452011;28;1729;-66
2024/02/20 05:49:13;;;;;;;;;;;;;;;5.28;100.00;96596.66;10446838;28;1903;-74
2024/02/20 05:54:16;;;;;;;;;;;;;;;5.27;100.00;96603.00;10447063;28;1772;-68
2024/02/20 05:59:19;;;;;;;;;;;;;;;5.12;100.00;96606.00;10450117;28;1393;-68
2024/02/20 06:04:21;;;;;;;;;;;;;;;5.20;100.00;96604.91;10437329;28;1065;-66
2024/02/20 06:09:25;;;;;;;;;;;;;;;5.21;100.00;96609.22;10448082;28;1918;-75
2024/02/20 06:14:27;;;;;;;;;;;;;;;5.14;100.00;96608.47;10450121;28;1445;-66
2024/02/20 06:19:30;;;;;;;;;;;;;;;5.22;100.00;96615.38;10455822;28;2224;-68
2024/02/20 06:24:33;;;;;;;;;;;;;;;5.29;100.00;96626.78;10457783;28;1573;-66
2024/02/20 06:29:36;;;;;;;;;;;;;;;5.33;100.00;96628.78;10452668;28;1927;-66
2024/02/20 06:34:39;;;;;;;;;;;;;;;5.38;100.00;96628.13;10428353;28;1793;-70
2024/02/20 06:39:42;;;;;;;;;;;;;;;5.36;100.00;96665.69;10452203;28;1452;-66
2024/02/20 06:44:44;;;;;;;;;;;;;;;4.93;100.00;96670.94;10444661;28;2004;-68
2024/02/20 06:49:47;;;;;;;;;;;;;;;4.79;100.00;96667.56;10452230;28;1981;-69
2024/02/20 06:54:49;;;;;;;;;;;;;;;4.71;100.00;96670.50;10452058;28;1705;-67
2024/02/20 06:59:52;;;;;;;;;;;;;;;4.76;100.00;96673.31;10454877;28;1042;-73
2024/02/20 07:04:55;;;;;;;;;;;;;;;4.82;100.00;96683.09;10455296;28;1562;-66
2024/02/20 07:09:57;;;;;;;;;;;;;;;4.84;100.00;96686.38;10453655;28;2422;-67
2024/02/20 07:15:00;;;;;;;;;;;;;;;4.97;100.00;96695.31;10450186;28;1498;-66
2024/02/20 07:20:02;;;;;;;;;;;;;;;5.11;100.00;96704.84;10447424;28;1592;-71
2024/02/20 07:25:05;;;;;;;;;;;;;;;5.20;100.00;96705.38;10448502;28;1690;-72
2024/02/20 07:30:10;;;;;;;;;;;;;;;5.37;100.00;96709.97;10454725;28;1995;-65
2024/02/20 07:35:12;;;;;;;;;;;;;;;5.27;100.00;96714.97;10453135;28;1068;-64
2024/02/20 07:40:16;;;;;;;;;;;;;;;5.52;100.00;96717.63;10452703;28;1887;-66
2024/02/20 07:45:19;;;;;;;;;;;;;;;5.46;100.00;96725.69;10451618;28;1377;-66
2024/02/20 07:50:22;;;;;;;;;;;;;;;5.67;100.00;96736.00;10439266;28;2479;-66
2024/02/20 07:55:28;;;;;;;;;;;;;;;5.83;100.00;96726.59;10448167;28;1825;-66
2024/02/20 08:00:31;;;;;;;;;;;;;;;6.13;100.00;96729.41;10442724;28;1416;-65
2024/02/20 08:05:33;;;;;;;;;;;;;;;5.95;100.00;96731.03;10447515;28;1369;-65
2024/02/20 08:10:36;;;;;;;;;;;;;;;5.96;100.00;96729.16;10451364;28;1914;-66
2024/02/20 08:15:39;;;;;;;;;;;;;;;5.61;100.00;96731.53;10425394;28;1764;-69
2024/02/20 08:20:41;;;;;;;;;;;;;;;5.90;100.00;96738.03;10448922;28;1643;-71
2024/02/20 08:25:44;;;;;;;;;;;;;;;6.19;100.00;96736.53;10446284;28;1210;-66
2024/02/20 08:30:46;;;;;;;;;;;;;;;6.15;100.00;96754.84;10449523;28;1925;-64
2024/02/20 08:35:49;;;;;;;;;;;;;;;5.94;100.00;96753.41;10444885;28;2395;-67
2024/02/20 08:40:51;;;;;;;;;;;;;;;5.88;100.00;96754.25;10445485;28;1522;-66
2024/02/20 08:45:54;;;;;;;;;;;;;;;5.95;100.00;96760.38;10439278;28;1466;-66
2024/02/20 08:50:57;;;;;;;;;;;;;;;5.99;100.00;96767.97;10439787;28;1910;-65
2024/02/20 08:55:59;;;;;;;;;;;;;;;6.23;100.00;96759.06;10456118;28;1138;-66
2024/02/20 09:01:01;;;;;;;;;;;;;;;6.36;100.00;96758.94;10450192;28;1525;-64
2024/02/20 09:06:05;;;;;;;;;;;;;;;6.26;100.00;96753.28;10447176;28;1759;-65
2024/02/20 09:11:08;;;;;;;;;;;;;;;6.32;100.00;96770.28;10445291;28;1975;-68
2024/02/20 09:16:11;;;;;;;;;;;;;;;6.66;100.00;96767.00;10445188;28;1325;-65
2024/02/20 09:21:13;;;;;;;;;;;;;;;7.02;100.00;96771.47;10445137;28;2171;-65
2024/02/20 09:26:15;;;;;;;;;;;;;;;7.30;100.00;96768.19;10446721;28;1557;-64
2024/02/20 09:31:18;;;;;;;;;;;;;;;7.30;100.00;96759.34;10450333;28;2001;-65
2024/02/20 09:36:20;;;;;;;;;;;;;;;7.53;100.00;96767.44;10442851;28;1745;-65
2024/02/20 09:41:23;;;;;;;;;;;;;;;7.31;100.00;96775.16;10458280;28;1041;-68
2024/02/20 09:46:25;;;;;;;;;;;;;;;7.08;100.00;96779.63;10452936;28;1504;-64
2024/02/20 09:51:30;;;;;;;;;;;;;;;7.23;100.00;96774.69;10452553;28;1980;-64
2024/02/20 09:56:37;;;;;;;;;;;;;;;7.35;100.00;96778.22;10455683;28;1256;-65
2024/02/20 10:01:39;;;;;;;;;;;;;;;7.24;100.00;96774.44;10450794;28;1401;-64
2024/02/20 10:06:42;;;;;;;;;;;;;;;7.10;100.00;96785.56;10457721;28;2336;-67
2024/02/20 10:11:46;;;;;;;;;;;;;;;7.09;100.00;96786.59;10435270;28;1206;-65
2024/02/20 10:16:48;;;;;;;;;;;;;;;6.98;100.00;96789.00;10453561;28;1422;-73
2024/02/20 10:21:51;;;;;;;;;;;;;;;7.10;100.00;96793.59;10453878;28;1698;-69
2024/02/20 10:26:54;;;;;;;;;;;;;;;7.54;100.00;96786.97;10449389;28;1910;-64
2024/02/20 10:31:56;;;;;;;;;;;;;;;7.43;100.00;96787.75;10451244;28;1460;-65
2024/02/20 10:36:59;;;;;;;;;;;;;;;7.23;100.00;96774.69;10445559;28;1440;-65
2024/02/20 10:42:02;;;;;;;;;;;;;;;6.94;100.00;96776.31;10445049;28;1431;-66
2024/02/20 10:47:04;;;;;;;;;;;;;;;7.65;100.00;96772.00;10449934;28;1969;-64
2024/02/20 10:52:07;;;;;;;;;;;;;;;7.68;100.00;96763.50;10440465;28;1385;-64
2024/02/20 10:57:10;;;;;;;;;;;;;;;7.24;100.00;96789.69;10449165;28;1091;-64
2024/02/20 11:02:13;;;;;;;;;;;;;;;7.24;100.00;96784.31;10448352;28;2385;-64
2024/02/20 11:07:16;;;;;;;;;;;;;;;7.36;100.00;96776.34;10451478;28;1949;-72
2024/02/20 11:12:18;;;;;;;;;;;;;;;7.55;100.00;96786.75;10455784;28;1001;-64
2024/02/20 11:17:22;;;;;;;;;;;;;;;7.69;100.00;96776.63;10455991;28;1690;-64
2024/02/20 11:22:31;;;;;;;;;;;;;;;8.07;100.00;96772.72;10447902;28;1486;-72
2024/02/20 11:27:33;;;;;;;;;;;;;;;8.16;100.00;96768.66;10452671;28;1910;-69
2024/02/20 11:32:35;;;;;;;;;;;;;;;7.72;100.00;96775.38;10450470;28;1458;-66
2024/02/20 11:37:38;;;;;;;;;;;;;;;7.78;100.00;96771.78;10448139;28;1328;-63
2024/02/20 11:42:54;;;;;;;;;;;;;;;7.44;100.00;96766.13;10453555;28;1235;-64
2024/02/20 11:47:56;;;;;;;;;;;;;;;7.25;100.00;96751.19;10447367;28;1980;-64
2024/02/20 11:52:59;;;;;;;;;;;;;;;7.88;100.00;96752.47;10448022;28;1397;-64
2024/02/20 11:58:01;;;;;;;;;;;;;;;8.04;100.00;96751.78;10451593;28;1187;-70
2024/02/20 12:03:04;;;;;;;;;;;;;;;8.41;100.00;96741.63;10444978;28;1333;-77
2024/02/20 12:08:06;;;;;;;;;;;;;;;7.72;100.00;96752.09;10449281;28;3001;-70
2024/02/20 12:13:09;;;;;;;;;;;;;;;7.43;100.00;96756.47;10457857;28;1807;-64
2024/02/20 12:18:11;;;;;;;;;;;;;;;6.95;100.00;96781.44;10451239;28;1796;-64
2024/02/20 12:23:14;;;;;;;;;;;;;;;6.03;100.00;96803.81;10447184;28;1397;-64
2024/02/20 12:28:16;;;;;;;;;;;;;;;5.66;100.00;96801.88;10446632;28;1977;-66
2024/02/20 12:33:19;;;;;;;;;;;;;;;5.92;100.00;96792.84;10424710;28;1659;-65
2024/02/20 12:38:21;;;;;;;;;;;;;;;6.66;100.00;96784.88;10450025;28;1352;-63
2024/02/20 12:43:24;;;;;;;;;;;;;;;6.41;100.00;96784.97;10458516;28;1091;-65
2024/02/20 12:48:26;;;;;;;;;;;;;;;6.69;100.00;96777.25;10449294;28;2815;-63
2024/02/20 12:53:29;;;;;;;;;;;;;;;6.63;100.00;96772.81;10442164;28;1970;-63
2024/02/20 12:58:31;;;;;;;;;;;;;;;6.77;100.00;96749.41;10347690;28;6809;-66
2024/02/20 13:03:34;;;;;;;;;;;;;;;7.07;100.00;96761.97;10367723;28;1344;-64
2024/02/20 13:08:37;;;;;;;;;;;;;;;7.59;100.00;96765.72;10356321;28;1906;-72
2024/02/20 13:13:39;;;;;;;;;;;;;;;7.69;100.00;96754.41;10374680;28;1163;-65
2024/02/20 13:18:42;;;;;;;;;;;;;;;7.77;100.00;96752.22;10374559;28;1282;-65
2024/02/20 13:23:44;;;;;;;;;;;;;;;8.00;100.00;96748.72;10370102;28;1445;-66
2024/02/20 13:28:47;;;;;;;;;;;;;;;7.97;100.00;96741.19;10385771;28;1907;-64
2024/02/20 13:33:49;;;;;;;;;;;;;;;8.06;100.00;96734.41;10369687;28;1556;-64
2024/02/20 13:38:52;;;;;;;;;;;;;;;7.99;100.00;96732.91;10376456;28;3004;-65
2024/02/20 13:43:54;;;;;;;;;;;;;;;7.85;100.00;96717.09;10367910;28;1527;-65
2024/02/20 13:48:57;;;;;;;;;;;;;;;7.53;100.00;96716.59;10369630;28;1910;-64
2024/02/20 13:54:00;;;;;;;;;;;;;;;7.29;100.00;96720.28;10364018;28;1755;-68
2024/02/20 13:59:03;;;;;;;;;;;;;;;7.57;100.00;96708.91;10369228;28;1176;-65
2024/02/20 14:04:05;;;;;;;;;;;;;;;7.80;100.00;96718.81;10370252;28;1567;-64
2024/02/20 14:09:08;;;;;;;;;;;;;;;7.92;100.00;96711.59;10362448;28;1974;-66
2024/02/20 14:14:11;;;;;;;;;;;;;;;8.00;100.00;96708.56;10360063;28;1064;-66
2024/02/20 14:19:13;;;;;;;;;;;;;;;7.97;100.00;96703.69;10371018;28;1448;-62
2024/02/20 14:24:16;;;;;;;;;;;;;;;8.21;100.00;96701.81;10360991;28;3085;-63
2024/02/20 14:29:19;;;;;;;;;;;;;;;8.84;100.00;96697.44;10362531;28;1906;-65
2024/02/20 14:34:22;;;;;;;;;;;;;;;8.07;100.00;96709.25;10365077;28;1686;-63
2024/02/20 14:39:25;;;;;;;;;;;;;;;7.66;100.00;96710.22;10357006;28;1381;-66
2024/02/20 14:44:27;;;;;;;;;;;;;;;7.82;100.00;96711.38;10369312;28;1466;-65
2024/02/20 14:49:29;;;;;;;;;;;;;;;8.13;100.00;96702.97;10363005;28;1906;-65
2024/02/20 14:54:32;;;;;;;;;;;;;;;8.01;100.00;96688.78;10367629;28;1603;-65
2024/02/20 14:59:35;;;;;;;;;;;;;;;8.20;100.00;96696.66;10362270;28;1434;-65
2024/02/20 15:04:37;;;;;;;;;;;;;;;8.26;100.00;96693.03;10308319;28;1316673;-65
2024/02/20 15:09:40;;;;;;;;;;;;;;;8.27;100.00;96694.66;10365681;28;1985;-67
2024/02/20 15:14:43;;;;;;;;;;;;;;;8.22;100.00;96703.44;10366762;28;1510;-63
2024/02/20 15:19:50;;;;;;;;;;;;;;;8.08;100.00;96708.22;10365678;28;1699;-64
2024/02/20 15:24:54;;;;;;;;;;;;;;;7.76;100.00;96701.59;10366435;28;1495;-71
2024/02/20 15:29:59;;;;;;;;;;;;;;;7.58;100.00;96715.91;10364815;28;1915;-64
2024/02/20 15:35:05;;;;;;;;;;;;;;;7.72;100.00;96713.81;10362060;28;1950;-63
2024/02/20 15:40:09;;;;;;;;;;;;;;;7.71;100.00;96714.88;10358781;28;1674;-65
2024/02/20 15:45:12;;;;;;;;;;;;;;;7.67;100.00;96719.06;10365060;28;2428;-66
2024/02/20 15:50:15;;;;;;;;;;;;;;;7.50;100.00;96719.72;10365171;28;2059;-64
2024/02/20 15:55:18;;;;;;;;;;;;;;;7.38;100.00;96721.59;10363091;28;1532;-66
2024/02/20 16:00:21;;;;;;;;;;;;;;;7.15;100.00;96708.16;10367177;28;1122;-64
2024/02/20 16:05:23;;;;;;;;;;;;;;;7.09;100.00;96712.56;10364689;28;1405;-63
2024/02/20 16:10:26;;;;;;;;;;;;;;;6.92;100.00;96715.06;10365914;28;1921;-67
2024/02/20 16:15:31;;;;;;;;;;;;;;;6.80;100.00;96724.06;10364562;28;1377;-63
2024/02/20 16:20:33;;;;;;;;;;;;;;;6.77;100.00;96731.50;10367885;28;1465;-66
2024/02/20 16:25:36;;;;;;;;;;;;;;;6.85;100.00;96733.03;10358887;28;1800;-65
2024/02/20 16:30:39;;;;;;;;;;;;;;;6.72;100.00;96739.38;10362835;28;1918;-65
2024/02/20 16:35:42;;;;;;;;;;;;;;;6.59;100.00;96744.88;10358149;28;1290;-64
2024/02/20 16:40:44;;;;;;;;;;;;;;;6.53;100.00;96751.13;10367917;28;2506;-64
2024/02/20 16:45:47;;;;;;;;;;;;;;;6.53;100.00;96763.66;10363815;28;1657;-69
2024/02/20 16:50:49;;;;;;;;;;;;;;;6.46;100.00;96755.72;10362916;28;1979;-66
2024/02/20 16:55:52;;;;;;;;;;;;;;;6.32;100.00;96765.75;10358500;28;1827;-67
2024/02/20 17:00:54;;;;;;;;;;;;;;;6.18;100.00;96766.94;10358323;28;1318;-66
2024/02/20 17:05:57;;;;;;;;;;;;;;;6.18;100.00;96764.28;10362698;28;1361;-63
2024/02/20 17:11:00;;;;;;;;;;;;;;;6.21;100.00;96759.28;10361846;28;1906;-64
2024/02/20 17:16:03;;;;;;;;;;;;;;;6.21;100.00;96751.28;10364178;28;1358;-64
2024/02/20 17:21:11;;;;;;;;;;;;;;;6.18;100.00;96753.59;10360766;28;1354;-65
2024/02/20 17:26:14;;;;;;;;;;;;;;;6.19;100.00;96741.88;10359755;28;2351;-64
2024/02/20 17:31:16;;;;;;;;;;;;;;;6.14;100.00;96742.53;10361720;28;1906;-65
2024/02/20 17:36:19;;;;;;;;;;;;;;;6.13;100.00;96750.78;10358240;28;1467;-63
2024/02/20 17:41:22;;;;;;;;;;;;;;;6.14;100.00;96745.19;10355114;28;1802;-68
2024/02/20 17:46:25;;;;;;;;;;;;;;;6.13;100.00;96740.09;10363812;28;1457;-65
2024/02/20 17:51:28;;;;;;;;;;;;;;;6.04;100.00;96731.53;10360542;28;1981;-62
2024/02/20 17:56:31;;;;;;;;;;;;;;;5.96;100.00;96729.97;10362355;28;1782;-69
2024/02/20 18:01:34;;;;;;;;;;;;;;;5.91;100.00;96729.81;10368669;28;1386;-70
2024/02/20 18:06:36;;;;;;;;;;;;;;;5.82;100.00;96730.31;10358388;28;1421;-69
2024/02/20 18:11:39;;;;;;;;;;;;;;;5.83;100.00;96735.41;10368404;28;1921;-65
2024/02/20 18:16:41;;;;;;;;;;;;;;;5.87;100.00;96731.28;10371306;28;1365;-65
2024/02/20 18:21:44;;;;;;;;;;;;;;;5.85;100.00;96730.69;10371377;28;2687;-64
2024/02/20 18:26:46;;;;;;;;;;;;;;;5.81;100.00;96736.69;10367181;28;1561;-64
2024/02/20 18:31:49;;;;;;;;;;;;;;;5.64;100.00;96737.22;10376846;28;1914;-64
2024/02/20 18:36:53;;;;;;;;;;;;;;;5.58;100.00;96731.94;10362708;28;1802;-64
2024/02/20 18:41:55;;;;;;;;;;;;;;;5.49;100.00;96731.41;10366316;28;958;-63
2024/02/20 18:46:58;;;;;;;;;;;;;;;5.41;100.00;96740.50;10367287;28;1948;-72
2024/02/20 18:52:01;;;;;;;;;;;;;;;5.37;100.00;96736.63;10364459;28;1902;-62
2024/02/20 18:57:03;;;;;;;;;;;;;;;5.29;100.00;96739.56;10365186;28;1055;-64
2024/02/20 19:02:06;;;;;;;;;;;;;;;5.25;100.00;96743.69;10361576;28;2581;-65
2024/02/20 19:07:24;;;;;;;;;;;;;;;5.18;100.00;96736.78;10367017;28;1475;-63
2024/02/20 19:12:28;;;;;;;;;;;;;;;5.09;100.00;96733.53;10362629;28;2073;-69
2024/02/20 19:17:30;;;;;;;;;;;;;;;4.95;100.00;96732.81;10366822;28;1629;-69
2024/02/20 19:22:33;;;;;;;;;;;;;;;4.83;100.00;96729.19;10368947;28;1563;-75
2024/02/20 19:27:39;;;;;;;;;;;;;;;4.81;100.00;96726.75;10367465;28;1637;-65
2024/02/20 19:32:41;;;;;;;;;;;;;;;4.73;100.00;96729.69;10369667;28;1891;-70
2024/02/20 19:37:44;;;;;;;;;;;;;;;4.69;100.00;96736.44;10363543;28;1337;-65
2024/02/20 19:42:47;;;;;;;;;;;;;;;4.62;100.00;96727.69;10360923;28;1161;-64
2024/02/20 19:47:50;;;;;;;;;;;;;;;4.62;100.00;96735.66;10360647;28;2630;-62
2024/02/20 19:52:53;;;;;;;;;;;;;;;4.52;100.00;96730.81;10358180;28;1974;-64
2024/02/20 19:57:56;;;;;;;;;;;;;;;4.46;100.00;96723.66;10365018;28;1339;-65
2024/02/20 20:02:58;;;;;;;;;;;;;;;4.48;100.00;96720.78;10365701;28;1778;-64
2024/02/20 20:08:01;;;;;;;;;;;;;;;4.45;100.00;96727.34;10356369;28;1409;-63
2024/02/20 20:13:04;;;;;;;;;;;;;;;4.47;100.00;96737.78;10366781;28;1952;-66
2024/02/20 20:18:07;;;;;;;;;;;;;;;4.46;100.00;96734.31;10360430;28;1329;-64
2024/02/20 20:23:10;;;;;;;;;;;;;;;4.49;100.00;96744.53;10363764;28;1482;-64
2024/02/20 20:28:13;;;;;;;;;;;;;;;4.55;100.00;96737.56;10364652;28;1055;-63
2024/02/20 20:33:16;;;;;;;;;;;;;;;4.62;100.00;96743.66;10358165;28;1906;-63
2024/02/20 20:38:19;;;;;;;;;;;;;;;4.62;100.00;96741.00;10363591;28;2625;-65
2024/02/20 20:43:21;;;;;;;;;;;;;;;4.67;100.00;96735.84;10367868;28;1577;-66
2024/02/20 20:48:24;;;;;;;;;;;;;;;4.74;100.00;96736.63;10357838;28;2323;-64
2024/02/20 20:53:27;;;;;;;;;;;;;;;4.75;100.00;96732.94;10363017;28;1906;-63
2024/02/20 20:58:29;;;;;;;;;;;;;;;4.73;100.00;96728.88;10366133;28;1044;-64
2024/02/20 21:03:32;;;;;;;;;;;;;;;4.77;100.00;96722.91;10362181;28;1457;-67
2024/02/20 21:08:35;;;;;;;;;;;;;;;4.79;100.00;96722.69;10359972;28;1401;-64
2024/02/20 21:13:38;;;;;;;;;;;;;;;4.82;100.00;96716.91;10362628;28;1981;-67
2024/02/20 21:18:40;;;;;;;;;;;;;;;4.80;100.00;96714.47;10360676;28;2333;-63
2024/02/20 21:23:43;;;;;;;;;;;;;;;4.75;100.00;96714.28;10362515;28;1409;-64
2024/02/20 21:28:46;;;;;;;;;;;;;;;4.78;100.00;96723.72;10363010;28;969;-64
2024/02/20 21:33:49;;;;;;;;;;;;;;;4.77;100.00;96714.06;10367840;28;1918;-66
2024/02/20 21:38:51;;;;;;;;;;;;;;;4.75;100.00;96711.63;10366877;28;1460;-65
2024/02/20 21:43:54;;;;;;;;;;;;;;;4.80;100.00;96706.47;10374538;28;1373;-64
2024/02/20 21:48:57;;;;;;;;;;;;;;;4.82;100.00;96707.06;10373736;28;1797;-61
2024/02/20 21:54:02;;;;;;;;;;;;;;;4.87;100.00;96709.91;10368189;28;1977;-65
2024/02/20 21:59:05;;;;;;;;;;;;;;;4.89;100.00;96707.84;10373694;28;1068;-64
2024/02/20 22:04:08;;;;;;;;;;;;;;;4.87;100.00;96709.09;10365773;28;2458;-64
2024/02/20 22:09:11;;;;;;;;;;;;;;;4.78;100.00;96700.56;10366657;28;1610;-63
2024/02/20 22:14:15;;;;;;;;;;;;;;;4.68;100.00;96696.72;10358464;28;1911;-64
2024/02/20 22:19:18;;;;;;;;;;;;;;;4.57;100.00;96701.69;10369192;28;1704;-64
2024/02/20 22:24:21;;;;;;;;;;;;;;;4.51;100.00;96691.88;10363715;28;1386;-66
2024/02/20 22:29:23;;;;;;;;;;;;;;;4.49;100.00;96696.59;10377295;28;1148;-73
2024/02/20 22:34:26;;;;;;;;;;;;;;;4.57;100.00;96698.19;10364849;28;1982;-64
2024/02/20 22:39:28;;;;;;;;;;;;;;;4.57;100.00;96692.88;10365412;28;1314;-71
2024/02/20 22:44:31;;;;;;;;;;;;;;;4.59;100.00;96686.31;10362916;28;1374;-71
2024/02/20 22:49:33;;;;;;;;;;;;;;;4.55;100.00;96681.63;10366211;28;1109;-66
2024/02/20 22:54:37;;;;;;;;;;;;;;;4.51;100.00;96683.88;10358326;28;1918;-68
2024/02/20 22:59:40;;;;;;;;;;;;;;;4.42;100.00;96681.69;10365525;28;2626;-64
2024/02/20 23:04:42;;;;;;;;;;;;;;;4.36;100.00;96679.88;10364896;28;1523;-65
2024/02/20 23:09:45;;;;;;;;;;;;;;;4.25;100.00;96668.88;10371461;28;1545;-63
2024/02/20 23:14:47;;;;;;;;;;;;;;;4.24;100.00;96667.25;10364752;28;1910;-63
2024/02/20 23:19:50;;;;;;;;;;;;;;;4.26;100.00;96665.19;10367717;28;1421;-69
2024/02/20 23:24:52;;;;;;;;;;;;;;;4.27;100.00;96661.50;10358739;28;1298;-67
2024/02/20 23:29:55;;;;;;;;;;;;;;;4.31;100.00;96656.56;10365776;28;1463;-64
2024/02/20 23:34:57;;;;;;;;;;;;;;;4.45;100.00;96651.97;10362511;28;1918;-64
2024/02/20 23:40:00;;;;;;;;;;;;;;;4.55;100.00;96658.47;10367591;28;1385;-64
2024/02/20 23:45:03;;;;;;;;;;;;;;;4.71;100.00;96654.50;10365316;28;2830;-65
2024/02/20 23:50:05;;;;;;;;;;;;;;;4.78;100.00;96654.47;10363047;28;1791;-64
2024/02/20 23:55:08;;;;;;;;;;;;;;;4.85;100.00;96658.72;10361606;28;1975;-63
